Port Hope, Minnesota
Current Conditions -  °F | °C
As of 8:13 PM on Friday 24 Oct 2014 (Local Time) from KBJI Reporting Station
Clear Clear  
Wind Chill: 61°   Ceiling: Unl
Heat Index: 61°   Visibility: 10mi
Dew Point: 33°   Wind: 17mph
Humidity: 35%   Direction: 290°WNW
Pressure: 29.79"   Gusts: NA
Location:  47.5271°N, 94.7611°W
Report Text: KBJI 250113Z AUTO 29015KT 10SM CLR 16/01 A2979 RMK AO2 T01620008
Loading
Personal Weather Stations






























Interactive Weather Map
Tropical Storm Tracking
New forecast layout! Learn more

10-Day Weather Forecast

Advertisements
Track Severe Weather on mobile